createdAt,value
2023-01-21T00:00:28.052Z,1016.81
2023-01-21T00:01:21.190Z,1016.87
2023-01-21T00:02:21.279Z,1016.81
2023-01-21T00:03:21.178Z,1016.87
2023-01-21T00:04:21.195Z,1016.83
2023-01-21T00:05:21.169Z,1016.88
2023-01-21T00:06:22.007Z,1016.90
2023-01-21T00:07:21.154Z,1016.86
2023-01-21T00:08:21.126Z,1016.95
2023-01-21T00:09:21.128Z,1016.96
2023-01-21T00:10:21.180Z,1016.92
2023-01-21T00:11:25.088Z,1016.97
2023-01-21T00:12:21.867Z,1016.92
2023-01-21T00:13:21.467Z,1017.00
2023-01-21T00:14:21.069Z,1016.98
2023-01-21T00:15:21.762Z,1017.01
2023-01-21T00:16:21.767Z,1017.01
2023-01-21T00:17:21.047Z,1017.02
2023-01-21T00:18:21.937Z,1017.06
2023-01-21T00:19:21.242Z,1017.02
2023-01-21T00:20:28.407Z,1017.04
2023-01-21T00:21:20.986Z,1017.07
2023-01-21T00:22:20.993Z,1017.11
2023-01-21T00:23:20.993Z,1017.18
2023-01-21T00:24:20.984Z,1017.18
2023-01-21T00:25:20.945Z,1017.21
2023-01-21T00:26:20.938Z,1017.18
2023-01-21T00:27:21.887Z,1017.24
2023-01-21T00:28:21.963Z,1017.24
2023-01-21T00:29:21.482Z,1017.28
2023-01-21T00:30:20.891Z,1017.24
2023-01-21T00:31:20.970Z,1017.30
2023-01-21T00:32:20.894Z,1017.33
2023-01-21T00:33:20.857Z,1017.30
2023-01-21T00:34:20.865Z,1017.36
2023-01-21T00:35:20.847Z,1017.39
2023-01-21T00:36:21.472Z,1017.39
2023-01-21T00:37:20.848Z,1017.41
2023-01-21T00:38:20.822Z,1017.45
2023-01-21T00:39:20.821Z,1017.45
2023-01-21T00:40:27.970Z,1017.41
2023-01-21T00:41:20.796Z,1017.42
2023-01-21T00:42:20.966Z,1017.46
2023-01-21T00:43:20.781Z,1017.47
2023-01-21T00:44:21.384Z,1017.50
2023-01-21T00:45:23.396Z,1017.44
2023-01-21T00:46:23.016Z,1017.51
2023-01-21T00:47:20.733Z,1017.47
2023-01-21T00:48:20.716Z,1017.48
2023-01-21T00:49:20.692Z,1017.50
2023-01-21T00:50:21.688Z,1017.48
2023-01-21T00:51:20.723Z,1017.46
2023-01-21T00:52:20.652Z,1017.52
2023-01-21T00:53:20.668Z,1017.49
2023-01-21T00:54:20.635Z,1017.52
2023-01-21T00:55:20.639Z,1017.53
2023-01-21T00:56:21.302Z,1017.51
2023-01-21T00:57:20.633Z,1017.60
2023-01-21T00:58:20.596Z,1017.60
2023-01-21T00:59:20.624Z,1017.62
2023-01-21T01:00:28.853Z,1017.67
2023-01-21T01:01:22.524Z,1017.67
2023-01-21T01:02:21.489Z,1017.69
2023-01-21T01:03:22.564Z,1017.68
2023-01-21T01:04:22.904Z,1017.63
2023-01-21T01:05:20.544Z,1017.70
2023-01-21T01:06:20.521Z,1017.69
2023-01-21T01:07:20.524Z,1017.69
2023-01-21T01:08:21.022Z,1017.74
2023-01-21T01:09:20.484Z,1017.77
2023-01-21T01:10:21.955Z,1017.76
2023-01-21T01:11:20.547Z,1017.81
2023-01-21T01:12:20.449Z,1017.81
2023-01-21T01:13:20.467Z,1017.85
2023-01-21T01:14:20.445Z,1017.85
2023-01-21T01:15:20.462Z,1017.91
2023-01-21T01:16:20.454Z,1017.93
2023-01-21T01:17:20.420Z,1017.94
2023-01-21T01:18:20.415Z,1017.95
2023-01-21T01:19:20.378Z,1018.00
2023-01-21T01:20:20.364Z,1018.04
2023-01-21T01:21:21.901Z,1018.10
2023-01-21T01:22:20.342Z,1018.11
2023-01-21T01:23:20.366Z,1018.10
2023-01-21T01:24:20.339Z,1018.10
2023-01-21T01:25:20.325Z,1018.13
2023-01-21T01:26:21.014Z,1018.09
2023-01-21T01:27:21.451Z,1018.11
2023-01-21T01:28:20.289Z,1018.09
2023-01-21T01:29:20.299Z,1018.16
2023-01-21T01:30:20.290Z,1018.20
2023-01-21T01:31:20.349Z,1018.26
2023-01-21T01:32:20.248Z,1018.27
2023-01-21T01:33:20.233Z,1018.22
2023-01-21T01:34:20.248Z,1018.34
2023-01-21T01:35:20.216Z,1018.31
2023-01-21T01:36:20.956Z,1018.40
2023-01-21T01:37:20.184Z,1018.38
2023-01-21T01:38:20.197Z,1018.41
2023-01-21T01:39:21.025Z,1018.40
2023-01-21T01:40:20.185Z,1018.42
2023-01-21T01:41:20.168Z,1018.48
2023-01-21T01:42:20.219Z,1018.44
2023-01-21T01:43:20.170Z,1018.51
2023-01-21T01:44:20.113Z,1018.53
2023-01-21T01:45:20.123Z,1018.53
2023-01-21T01:46:20.247Z,1018.53
2023-01-21T01:47:20.913Z,1018.58
2023-01-21T01:48:20.114Z,1018.62
2023-01-21T01:49:20.068Z,1018.63
2023-01-21T01:50:26.981Z,1018.61
2023-01-21T01:51:20.077Z,1018.64
2023-01-21T01:52:20.039Z,1018.66
2023-01-21T01:53:20.032Z,1018.75
2023-01-21T01:54:20.569Z,1018.72
2023-01-21T01:55:19.996Z,1018.70
2023-01-21T01:56:20.965Z,1018.75
2023-01-21T01:57:20.882Z,1018.73
2023-01-21T01:58:20.006Z,1018.73
2023-01-21T01:59:19.974Z,1018.72
2023-01-21T02:00:19.947Z,1018.74
2023-01-21T02:01:19.972Z,1018.73
2023-01-21T02:02:19.959Z,1018.73
2023-01-21T02:03:19.906Z,1018.73
2023-01-21T02:04:19.912Z,1018.75
2023-01-21T02:05:20.600Z,1018.75
2023-01-21T02:06:19.891Z,1018.79
2023-01-21T02:07:20.859Z,1018.78
2023-01-21T02:08:19.871Z,1018.84
2023-01-21T02:09:19.872Z,1018.84
2023-01-21T02:10:19.980Z,1018.84
2023-01-21T02:11:19.846Z,1018.90
2023-01-21T02:12:19.845Z,1018.92
2023-01-21T02:13:20.498Z,1018.91
2023-01-21T02:14:19.810Z,1018.89
2023-01-21T02:15:20.377Z,1018.90
2023-01-21T02:16:21.574Z,1018.89
2023-01-21T02:17:19.773Z,1018.92
2023-01-21T02:18:19.760Z,1018.95
2023-01-21T02:19:19.761Z,1018.96
2023-01-21T02:20:19.757Z,1018.97
2023-01-21T02:21:19.747Z,1018.97
2023-01-21T02:22:19.735Z,1018.94
2023-01-21T02:23:19.707Z,1018.97
2023-01-21T02:24:19.707Z,1018.98
2023-01-21T02:25:20.566Z,1019.00
2023-01-21T02:26:20.560Z,1018.97
2023-01-21T02:27:24.906Z,1019.02
2023-01-21T02:28:19.675Z,1019.01
2023-01-21T02:29:19.667Z,1019.02
2023-01-21T02:30:19.652Z,1019.06
2023-01-21T02:31:19.758Z,1019.08
2023-01-21T02:32:19.635Z,1019.14
2023-01-21T02:33:20.585Z,1019.16
2023-01-21T02:34:19.592Z,1019.10
2023-01-21T02:35:20.577Z,1019.18
2023-01-21T02:36:20.565Z,1019.20
2023-01-21T02:37:20.368Z,1019.20
2023-01-21T02:38:19.576Z,1019.21
2023-01-21T02:39:19.559Z,1019.24
2023-01-21T02:40:26.084Z,1019.25
2023-01-21T02:41:19.548Z,1019.27
2023-01-21T02:42:19.538Z,1019.33
2023-01-21T02:43:20.098Z,1019.34
2023-01-21T02:44:20.517Z,1019.34
2023-01-21T02:45:19.506Z,1019.41
2023-01-21T02:46:19.521Z,1019.41
2023-01-21T02:47:19.452Z,1019.45
2023-01-21T02:48:19.440Z,1019.46
2023-01-21T02:49:19.445Z,1019.44
2023-01-21T02:50:19.983Z,1019.47
2023-01-21T02:51:19.491Z,1019.48
2023-01-21T02:52:20.043Z,1019.46
2023-01-21T02:53:19.431Z,1019.46
2023-01-21T02:54:19.377Z,1019.44
2023-01-21T02:55:19.396Z,1019.47
2023-01-21T02:56:19.353Z,1019.39
2023-01-21T02:57:19.354Z,1019.48
2023-01-21T02:58:19.337Z,1019.44
2023-01-21T02:59:19.356Z,1019.49
2023-01-21T03:00:20.024Z,1019.50
2023-01-21T03:01:19.331Z,1019.50
2023-01-21T03:02:19.313Z,1019.49
2023-01-21T03:03:19.933Z,1019.56
2023-01-21T03:04:19.270Z,1019.52
2023-01-21T03:05:19.290Z,1019.53
2023-01-21T03:06:19.263Z,1019.52
2023-01-21T03:07:20.097Z,1019.55
2023-01-21T03:08:21.124Z,1019.58
2023-01-21T03:09:21.534Z,1019.58
2023-01-21T03:10:40.518Z,1019.63
2023-01-21T03:11:19.231Z,1019.58
2023-01-21T03:12:19.203Z,1019.62
2023-01-21T03:13:19.200Z,1019.58
2023-01-21T03:14:19.171Z,1019.65
2023-01-21T03:15:19.264Z,1019.60
2023-01-21T03:16:19.246Z,1019.63
2023-01-21T03:17:19.142Z,1019.60
2023-01-21T03:18:19.128Z,1019.63
2023-01-21T03:19:19.128Z,1019.62
2023-01-21T03:20:19.102Z,1019.63
2023-01-21T03:21:19.098Z,1019.66
2023-01-21T03:22:19.100Z,1019.73
2023-01-21T03:23:19.104Z,1019.72
2023-01-21T03:24:19.091Z,1019.71
2023-01-21T03:25:19.620Z,1019.68
2023-01-21T03:26:21.561Z,1019.72
2023-01-21T03:27:22.793Z,1019.69
2023-01-21T03:28:20.068Z,1019.70
2023-01-21T03:29:19.043Z,1019.70
2023-01-21T03:30:26.076Z,1019.65
2023-01-21T03:31:20.023Z,1019.71
2023-01-21T03:32:18.972Z,1019.72
2023-01-21T03:33:18.979Z,1019.70
2023-01-21T03:34:18.971Z,1019.71
2023-01-21T03:35:18.957Z,1019.72
2023-01-21T03:36:19.544Z,1019.69
2023-01-21T03:37:18.929Z,1019.73
2023-01-21T03:38:18.931Z,1019.74
2023-01-21T03:39:19.112Z,1019.74
2023-01-21T03:40:19.831Z,1019.74
2023-01-21T03:41:18.915Z,1019.79
2023-01-21T03:42:18.874Z,1019.78
2023-01-21T03:43:20.624Z,1019.80
2023-01-21T03:44:20.295Z,1019.79
2023-01-21T03:45:18.844Z,1019.81
2023-01-21T03:46:18.912Z,1019.86
2023-01-21T03:47:18.838Z,1019.79
2023-01-21T03:48:18.833Z,1019.78
2023-01-21T03:49:18.808Z,1019.80
2023-01-21T03:50:25.971Z,1019.82
2023-01-21T03:51:18.850Z,1019.85
2023-01-21T03:52:18.763Z,1019.87
2023-01-21T03:53:18.763Z,1019.90
2023-01-21T03:54:18.991Z,1019.94
2023-01-21T03:55:19.591Z,1019.96
2023-01-21T03:56:18.718Z,1019.92
2023-01-21T03:57:18.745Z,1019.97
2023-01-21T03:58:19.513Z,1019.93
2023-01-21T03:59:19.571Z,1019.97
2023-01-21T04:00:20.161Z,1019.99
2023-01-21T04:01:21.656Z,1020.08
2023-01-21T04:02:19.660Z,1020.04
2023-01-21T04:03:18.661Z,1020.07
2023-01-21T04:04:18.640Z,1020.09
2023-01-21T04:05:18.654Z,1020.14
2023-01-21T04:06:18.641Z,1020.09
2023-01-21T04:07:18.608Z,1020.09
2023-01-21T04:08:18.590Z,1020.07
2023-01-21T04:09:18.595Z,1020.08
2023-01-21T04:10:25.704Z,1020.11
2023-01-21T04:11:18.577Z,1020.10
2023-01-21T04:12:18.577Z,1020.07
2023-01-21T04:13:18.564Z,1020.09
2023-01-21T04:14:18.550Z,1020.08
2023-01-21T04:15:18.571Z,1020.18
2023-01-21T04:16:19.160Z,1020.11
2023-01-21T04:17:18.586Z,1020.07
2023-01-21T04:18:19.592Z,1020.09
2023-01-21T04:19:20.054Z,1020.07
2023-01-21T04:20:20.137Z,1020.09
2023-01-21T04:21:18.464Z,1020.10
2023-01-21T04:22:19.115Z,1020.09
2023-01-21T04:23:19.131Z,1020.08
2023-01-21T04:24:18.462Z,1020.12
2023-01-21T04:25:19.115Z,1020.12
2023-01-21T04:26:19.133Z,1020.12
2023-01-21T04:27:19.117Z,1020.13
2023-01-21T04:28:19.122Z,1020.16
2023-01-21T04:29:20.944Z,1020.16
2023-01-21T04:30:25.723Z,1020.14
2023-01-21T04:31:19.908Z,1020.12
2023-01-21T04:32:19.777Z,1020.14
2023-01-21T04:33:19.740Z,1020.18
2023-01-21T04:34:19.226Z,1020.22
2023-01-21T04:35:18.342Z,1020.28
2023-01-21T04:36:19.167Z,1020.25
2023-01-21T04:37:18.973Z,1020.25
2023-01-21T04:38:21.156Z,1020.26
2023-01-21T04:39:19.126Z,1020.26
2023-01-21T04:40:20.041Z,1020.29
2023-01-21T04:41:19.125Z,1020.28
2023-01-21T04:42:19.151Z,1020.32
2023-01-21T04:43:19.142Z,1020.42
2023-01-21T04:44:19.134Z,1020.37
2023-01-21T04:45:19.141Z,1020.44
2023-01-21T04:46:19.147Z,1020.48
2023-01-21T04:47:18.205Z,1020.51
2023-01-21T04:48:19.224Z,1020.49
2023-01-21T04:49:19.246Z,1020.49
2023-01-21T04:50:18.411Z,1020.46
2023-01-21T04:51:19.645Z,1020.51
2023-01-21T04:52:18.158Z,1020.46
2023-01-21T04:53:18.788Z,1020.50
2023-01-21T04:54:19.055Z,1020.55
2023-01-21T04:55:20.446Z,1020.55
2023-01-21T04:56:21.160Z,1020.62
2023-01-21T04:57:18.080Z,1020.63
2023-01-21T04:58:19.473Z,1020.57
2023-01-21T04:59:19.287Z,1020.60
2023-01-21T05:00:25.272Z,1020.60
2023-01-21T05:01:18.149Z,1020.64
2023-01-21T05:02:18.752Z,1020.64
2023-01-21T05:03:18.563Z,1020.65
2023-01-21T05:04:18.680Z,1020.69
2023-01-21T05:05:18.682Z,1020.64
2023-01-21T05:06:18.708Z,1020.69
2023-01-21T05:07:21.477Z,1020.77
2023-01-21T05:08:20.491Z,1020.76
2023-01-21T05:09:18.582Z,1020.78
2023-01-21T05:10:19.501Z,1020.75
2023-01-21T05:11:19.586Z,1020.76
2023-01-21T05:12:19.182Z,1020.75
2023-01-21T05:13:18.680Z,1020.78
2023-01-21T05:14:21.571Z,1020.78
2023-01-21T05:15:21.195Z,1020.75
2023-01-21T05:16:18.700Z,1020.81
2023-01-21T05:17:18.674Z,1020.83
2023-01-21T05:18:18.665Z,1020.81
2023-01-21T05:19:19.751Z,1020.83
2023-01-21T05:20:18.802Z,1020.88
2023-01-21T05:21:55.196Z,1020.85
2023-01-21T05:22:18.690Z,1020.86
2023-01-21T05:23:18.656Z,1020.86
2023-01-21T05:24:18.662Z,1020.87
2023-01-21T05:25:19.770Z,1020.89
2023-01-21T05:26:17.797Z,1020.85
2023-01-21T05:27:20.674Z,1020.92
2023-01-21T05:28:18.777Z,1020.96
2023-01-21T05:29:17.763Z,1020.91
2023-01-21T05:30:18.805Z,1020.94
2023-01-21T05:31:17.922Z,1020.96
2023-01-21T05:32:19.675Z,1020.98
2023-01-21T05:33:18.262Z,1021.00
2023-01-21T05:34:17.702Z,1021.02
2023-01-21T05:35:19.059Z,1021.04
2023-01-21T05:36:18.593Z,1021.08
2023-01-21T05:37:17.692Z,1021.09
2023-01-21T05:38:17.691Z,1021.08
2023-01-21T05:39:19.098Z,1021.12
2023-01-21T05:40:25.218Z,1021.14
2023-01-21T05:41:18.471Z,1021.11
2023-01-21T05:42:18.407Z,1021.11
2023-01-21T05:43:17.628Z,1021.16
2023-01-21T05:44:18.584Z,1021.15
2023-01-21T05:45:17.641Z,1021.15
2023-01-21T05:46:17.595Z,1021.19
2023-01-21T05:47:17.616Z,1021.20
2023-01-21T05:48:17.547Z,1021.22
2023-01-21T05:49:17.576Z,1021.21
2023-01-21T05:50:17.866Z,1021.23
2023-01-21T05:51:17.579Z,1021.23
2023-01-21T05:52:18.217Z,1021.26
2023-01-21T05:53:17.515Z,1021.24
2023-01-21T05:54:18.495Z,1021.23
2023-01-21T05:55:17.512Z,1021.29
2023-01-21T05:56:18.289Z,1021.25
2023-01-21T05:57:17.477Z,1021.28
2023-01-21T05:58:18.061Z,1021.27
2023-01-21T05:59:19.133Z,1021.32
2023-01-21T06:00:18.607Z,1021.34
2023-01-21T06:01:17.443Z,1021.32
2023-01-21T06:02:17.482Z,1021.35
2023-01-21T06:03:17.433Z,1021.40
2023-01-21T06:04:17.419Z,1021.38
2023-01-21T06:05:17.412Z,1021.35
2023-01-21T06:06:17.360Z,1021.37
2023-01-21T06:07:17.362Z,1021.39
2023-01-21T06:08:17.338Z,1021.40
2023-01-21T06:09:17.353Z,1021.42
2023-01-21T06:10:19.000Z,1021.47
2023-01-21T06:11:17.321Z,1021.45
2023-01-21T06:12:17.327Z,1021.48
2023-01-21T06:13:17.507Z,1021.47
2023-01-21T06:14:17.307Z,1021.46
2023-01-21T06:15:17.262Z,1021.45
2023-01-21T06:16:17.791Z,1021.48
2023-01-21T06:17:17.249Z,1021.47
2023-01-21T06:18:17.243Z,1021.51
2023-01-21T06:19:17.228Z,1021.54
2023-01-21T06:20:18.526Z,1021.50
2023-01-21T06:21:17.313Z,1021.53
2023-01-21T06:22:17.199Z,1021.52
2023-01-21T06:23:17.197Z,1021.56
2023-01-21T06:24:17.177Z,1021.61
2023-01-21T06:25:17.158Z,1021.63
2023-01-21T06:26:17.163Z,1021.66
2023-01-21T06:27:17.727Z,1021.65
2023-01-21T06:28:18.231Z,1021.68
2023-01-21T06:29:17.782Z,1021.75
2023-01-21T06:30:17.427Z,1021.71
2023-01-21T06:31:17.183Z,1021.77
2023-01-21T06:32:17.100Z,1021.83
2023-01-21T06:33:17.796Z,1021.85
2023-01-21T06:34:17.090Z,1021.89
2023-01-21T06:35:17.055Z,1021.87
2023-01-21T06:36:17.075Z,1021.86
2023-01-21T06:37:17.063Z,1021.94
2023-01-21T06:38:24.227Z,1021.91
2023-01-21T06:39:17.046Z,1021.93
2023-01-21T06:40:18.173Z,1021.96
2023-01-21T06:41:17.006Z,1022.00
2023-01-21T06:42:16.991Z,1022.02
2023-01-21T06:43:16.971Z,1022.02
2023-01-21T06:44:16.991Z,1022.06
2023-01-21T06:45:16.987Z,1022.10
2023-01-21T06:46:18.556Z,1022.13
2023-01-21T06:47:16.954Z,1022.16
2023-01-21T06:48:16.949Z,1022.17
2023-01-21T06:49:16.925Z,1022.16
2023-01-21T06:50:24.288Z,1022.17
2023-01-21T06:51:17.000Z,1022.15
2023-01-21T06:52:16.974Z,1022.20
2023-01-21T06:53:16.864Z,1022.21
2023-01-21T06:54:16.890Z,1022.20
2023-01-21T06:55:16.847Z,1022.21
2023-01-21T06:56:16.841Z,1022.22
2023-01-21T06:57:16.819Z,1022.21
2023-01-21T06:58:16.831Z,1022.26
2023-01-21T06:59:17.007Z,1022.24
2023-01-21T07:00:17.183Z,1022.28
2023-01-21T07:01:16.830Z,1022.24
2023-01-21T07:02:20.617Z,1022.25
2023-01-21T07:03:17.864Z,1022.21
2023-01-21T07:04:16.782Z,1022.24
2023-01-21T07:05:17.059Z,1022.23
2023-01-21T07:06:16.763Z,1022.22
2023-01-21T07:07:16.741Z,1022.24
2023-01-21T07:08:16.728Z,1022.26
2023-01-21T07:09:16.703Z,1022.30
2023-01-21T07:10:24.831Z,1022.29
2023-01-21T07:11:16.671Z,1022.31
2023-01-21T07:12:16.685Z,1022.29
2023-01-21T07:13:16.676Z,1022.35
2023-01-21T07:14:16.654Z,1022.39
2023-01-21T07:15:16.907Z,1022.38
2023-01-21T07:16:16.700Z,1022.43
2023-01-21T07:17:16.650Z,1022.35
2023-01-21T07:18:16.625Z,1022.38
2023-01-21T07:19:16.691Z,1022.40
2023-01-21T07:20:16.868Z,1022.34
2023-01-21T07:21:16.603Z,1022.38
2023-01-21T07:22:16.807Z,1022.36
2023-01-21T07:23:16.660Z,1022.38
2023-01-21T07:24:16.574Z,1022.44
2023-01-21T07:25:16.860Z,1022.42
2023-01-21T07:26:16.531Z,1022.45
2023-01-21T07:27:16.542Z,1022.43
2023-01-21T07:28:17.372Z,1022.47
2023-01-21T07:29:16.491Z,1022.49
2023-01-21T07:30:23.020Z,1022.50
2023-01-21T07:31:16.585Z,1022.55
2023-01-21T07:32:16.465Z,1022.52
2023-01-21T07:33:16.466Z,1022.51
2023-01-21T07:34:16.492Z,1022.53
2023-01-21T07:35:16.724Z,1022.51
2023-01-21T07:36:16.449Z,1022.56
2023-01-21T07:37:16.402Z,1022.56
2023-01-21T07:38:16.400Z,1022.58
2023-01-21T07:39:16.851Z,1022.56
2023-01-21T07:40:17.346Z,1022.65
2023-01-21T07:41:16.367Z,1022.58
2023-01-21T07:42:17.334Z,1022.70
2023-01-21T07:43:16.363Z,1022.67
2023-01-21T07:44:16.343Z,1022.71
2023-01-21T07:45:16.715Z,1022.74
2023-01-21T07:46:16.362Z,1022.72
2023-01-21T07:47:16.300Z,1022.69
2023-01-21T07:48:16.295Z,1022.63
2023-01-21T07:49:16.300Z,1022.71
2023-01-21T07:50:16.281Z,1022.69
2023-01-21T07:51:16.312Z,1022.66
2023-01-21T07:52:16.259Z,1022.68
2023-01-21T07:53:16.246Z,1022.68
2023-01-21T07:54:16.302Z,1022.67
2023-01-21T07:55:17.222Z,1022.69
2023-01-21T07:56:16.904Z,1022.65
2023-01-21T07:57:16.813Z,1022.67
2023-01-21T07:58:17.337Z,1022.65
2023-01-21T07:59:16.174Z,1022.62
2023-01-21T08:00:24.379Z,1022.67
2023-01-21T08:01:16.199Z,1022.72
2023-01-21T08:02:16.312Z,1022.75
2023-01-21T08:03:16.133Z,1022.77
2023-01-21T08:04:16.947Z,1022.76
2023-01-21T08:05:16.473Z,1022.72
2023-01-21T08:06:16.108Z,1022.72
2023-01-21T08:07:16.094Z,1022.75
2023-01-21T08:08:16.091Z,1022.77
2023-01-21T08:09:16.086Z,1022.75
2023-01-21T08:10:16.268Z,1022.76
2023-01-21T08:11:16.058Z,1022.79
2023-01-21T08:12:16.058Z,1022.76
2023-01-21T08:13:16.923Z,1022.86
2023-01-21T08:14:16.020Z,1022.81
2023-01-21T08:15:16.402Z,1022.81
2023-01-21T08:16:17.512Z,1022.84
2023-01-21T08:17:16.226Z,1022.89
2023-01-21T08:18:16.008Z,1022.86
2023-01-21T08:19:16.931Z,1022.87
2023-01-21T08:20:23.526Z,1022.85
2023-01-21T08:21:15.971Z,1022.93
2023-01-21T08:22:15.957Z,1022.97
2023-01-21T08:23:15.933Z,1023.00
2023-01-21T08:24:16.238Z,1023.02
2023-01-21T08:25:16.169Z,1022.99
2023-01-21T08:26:15.916Z,1023.03
2023-01-21T08:27:15.919Z,1023.09
2023-01-21T08:28:16.700Z,1023.05
2023-01-21T08:29:16.794Z,1023.14
2023-01-21T08:30:16.075Z,1023.11
2023-01-21T08:31:16.538Z,1023.09
2023-01-21T08:32:16.099Z,1023.13
2023-01-21T08:33:16.824Z,1023.11
2023-01-21T08:34:17.390Z,1023.13
2023-01-21T08:35:16.777Z,1023.16
2023-01-21T08:36:15.815Z,1023.15
2023-01-21T08:37:15.794Z,1023.13
2023-01-21T08:38:15.768Z,1023.16
2023-01-21T08:39:16.460Z,1023.20
2023-01-21T08:40:22.303Z,1023.16
2023-01-21T08:41:15.770Z,1023.13
2023-01-21T08:42:16.494Z,1023.12
2023-01-21T08:43:15.744Z,1023.16
2023-01-21T08:44:16.398Z,1023.21
2023-01-21T08:45:16.937Z,1023.18
2023-01-21T08:46:16.485Z,1023.20
2023-01-21T08:47:16.501Z,1023.19
2023-01-21T08:48:15.980Z,1023.24
2023-01-21T08:49:16.502Z,1023.17
2023-01-21T08:50:15.851Z,1023.19
2023-01-21T08:51:16.570Z,1023.18
2023-01-21T08:52:18.432Z,1023.24
2023-01-21T08:53:16.504Z,1023.24
2023-01-21T08:54:15.835Z,1023.22
2023-01-21T08:55:16.731Z,1023.25
2023-01-21T08:56:16.310Z,1023.27
2023-01-21T08:57:16.501Z,1023.28
2023-01-21T08:58:15.797Z,1023.28
2023-01-21T08:59:16.431Z,1023.23
2023-01-21T09:00:22.602Z,1023.28
2023-01-21T09:01:16.445Z,1023.25
2023-01-21T09:02:16.581Z,1023.31
2023-01-21T09:03:16.014Z,1023.37
2023-01-21T09:04:16.023Z,1023.31
2023-01-21T09:05:16.375Z,1023.33
2023-01-21T09:06:16.023Z,1023.34
2023-01-21T09:07:16.952Z,1023.34
2023-01-21T09:08:16.025Z,1023.39
2023-01-21T09:09:16.445Z,1023.42
2023-01-21T09:10:16.631Z,1023.39
2023-01-21T09:11:15.956Z,1023.39
2023-01-21T09:12:16.011Z,1023.41
2023-01-21T09:13:16.016Z,1023.41
2023-01-21T09:14:16.011Z,1023.44
2023-01-21T09:15:16.381Z,1023.44
2023-01-21T09:16:15.970Z,1023.45
2023-01-21T09:17:16.025Z,1023.46
2023-01-21T09:18:16.506Z,1023.50
2023-01-21T09:19:16.452Z,1023.47
2023-01-21T09:20:15.985Z,1023.49
2023-01-21T09:21:15.984Z,1023.52
2023-01-21T09:22:15.951Z,1023.51
2023-01-21T09:23:16.718Z,1023.37
2023-01-21T09:24:15.934Z,1023.44
2023-01-21T09:25:17.034Z,1023.46
2023-01-21T09:26:15.303Z,1023.46
2023-01-21T09:28:06.221Z,1023.48
2023-01-21T09:29:06.046Z,1023.46
2023-01-21T09:30:05.687Z,1023.44
2023-01-21T09:31:06.548Z,1023.42
2023-01-21T09:32:06.042Z,1023.48
2023-01-21T09:33:05.975Z,1023.49
2023-01-21T09:34:06.852Z,1023.48
2023-01-21T09:35:05.948Z,1023.48
2023-01-21T09:36:06.029Z,1023.48
2023-01-21T09:37:06.044Z,1023.42
2023-01-21T09:38:05.958Z,1023.47
2023-01-21T09:39:06.049Z,1023.45
2023-01-21T09:40:06.055Z,1023.51
2023-01-21T09:41:05.312Z,1023.49
2023-01-21T09:42:05.860Z,1023.52
2023-01-21T09:43:11.956Z,1023.55
2023-01-21T09:44:06.976Z,1023.55
2023-01-21T09:45:05.981Z,1023.52
2023-01-21T09:46:06.108Z,1023.53
2023-01-21T09:47:06.141Z,1023.59
2023-01-21T09:48:05.448Z,1023.64
2023-01-21T09:49:05.430Z,1023.59
2023-01-21T09:50:06.060Z,1023.54
2023-01-21T09:51:06.102Z,1023.57
2023-01-21T09:52:06.042Z,1023.53
2023-01-21T09:53:06.496Z,1023.54
2023-01-21T09:54:05.976Z,1023.54
2023-01-21T09:55:05.976Z,1023.50
2023-01-21T09:56:05.817Z,1023.52
2023-01-21T09:57:06.552Z,1023.52
2023-01-21T09:58:05.986Z,1023.56
2023-01-21T09:59:05.194Z,1023.60
